Portada
METAR-TAF:

METAR-TAF

Aeropuertos :

Harrisburg-Raleigh Airport

Harrisburg, Illinois, Estados Unidos

latitud: 37-48-41N, longitud: 088-32-57W, altitud: 121 m

Observación

El informe se hizo hace 27 minutos, a las 14:15 UTC
Viento calma
Temperatura 27°C
Humedad 74%
Presión 1027 hPa
Visibilidad: 16.1 km
Cielo despejado

METAR: KHSB 201415Z AUTO 00000KT 10SM CLR 27/22 A3032 RMK AO2 T02690218

Hora: 09:42 (14:42 UTC)


TAF: falta

Observaciones y pronósticos meteorológicos de más de 4000 aeropuertos (mensajes METAR y TAF).

Los puntos amarillos y rojos representan las estaciones disponibles.

Ponga el ratón en el punto deseado para ver el nombre de la estación.

Haga clic para ver las observaciones y los pronósticos meteorológicos.

Para cambiar el mapa : haga clic en los botones verdes con una cruz de color negro para hacer un zoom, en el botón verde con un guión para alejar o en las flechas verdes para mapas adyacentes.


METAR-TAF: